createdAt,value
2022-12-29T00:01:48.083Z,100365.69
2022-12-29T00:04:17.182Z,100358.47
2022-12-29T00:06:45.174Z,100366.88
2022-12-29T00:09:14.041Z,100368.59
2022-12-29T00:11:43.451Z,100352.75
2022-12-29T00:14:29.352Z,100352.19
2022-12-29T00:16:57.167Z,100340.28
2022-12-29T00:19:43.044Z,100322.19
2022-12-29T00:22:29.395Z,100340.66
2022-12-29T00:25:15.197Z,100324.69
2022-12-29T00:28:07.249Z,100331.19
2022-12-29T00:30:55.031Z,100321.25
2022-12-29T00:33:41.090Z,100432.09
2022-12-29T00:36:14.081Z,100418.03
2022-12-29T00:39:04.752Z,100391.38
2022-12-29T00:41:50.056Z,100326.00
2022-12-29T00:44:19.315Z,100392.16
2022-12-29T00:46:47.223Z,100381.00
2022-12-29T00:49:34.418Z,100408.19
2022-12-29T00:52:05.413Z,100407.91
2022-12-29T00:54:35.238Z,100425.34
2022-12-29T00:57:04.439Z,100446.81
2022-12-29T00:59:33.508Z,100428.47
2022-12-29T01:02:01.912Z,100434.09
2022-12-29T01:04:29.680Z,100428.31
2022-12-29T01:06:57.441Z,100431.38
2022-12-29T01:09:42.731Z,100433.31
2022-12-29T01:12:11.838Z,100418.88
2022-12-29T01:14:40.978Z,100434.56
2022-12-29T01:17:08.865Z,100425.84
2022-12-29T01:19:36.584Z,100438.03
2022-12-29T01:22:04.596Z,100426.41
2022-12-29T01:24:32.331Z,100423.19
2022-12-29T01:27:00.112Z,100396.78
2022-12-29T01:29:27.865Z,100410.69
2022-12-29T01:31:56.987Z,100399.34
2022-12-29T01:34:24.703Z,100384.53
2022-12-29T01:36:52.462Z,100378.84
2022-12-29T01:39:20.183Z,100386.63
2022-12-29T01:41:47.891Z,100367.84
2022-12-29T01:44:48.745Z,100395.69
2022-12-29T01:47:25.398Z,100384.44
2022-12-29T01:49:56.388Z,100387.50
2022-12-29T01:52:26.244Z,100361.75
2022-12-29T01:54:56.151Z,100372.63
2022-12-29T01:57:26.835Z,100373.31
2022-12-29T01:59:58.668Z,100370.53
2022-12-29T02:02:32.422Z,100346.81
2022-12-29T02:05:06.817Z,100338.69
2022-12-29T02:07:35.691Z,100347.56
2022-12-29T02:10:04.839Z,100340.03
2022-12-29T02:12:32.708Z,100340.09
2022-12-29T02:15:03.862Z,100320.31
2022-12-29T02:17:47.350Z,100334.38
2022-12-29T02:20:41.395Z,100313.81
2022-12-29T02:23:33.083Z,100312.34
2022-12-29T02:26:22.443Z,100305.84
2022-12-29T02:29:29.793Z,100312.84
2022-12-29T02:32:03.471Z,100310.72
2022-12-29T02:34:40.088Z,100315.25
2022-12-29T02:37:16.560Z,100310.09
2022-12-29T02:39:54.369Z,100293.44
2022-12-29T02:42:26.705Z,100315.69
2022-12-29T02:44:59.439Z,100288.09
2022-12-29T02:47:37.376Z,100291.88
2022-12-29T02:50:10.477Z,100324.34
2022-12-29T02:52:42.467Z,100271.63
2022-12-29T02:55:11.386Z,100279.09
2022-12-29T02:57:39.582Z,100243.97
2022-12-29T03:00:10.496Z,100243.78
2022-12-29T03:03:08.875Z,100268.81
2022-12-29T03:06:04.952Z,100223.78
2022-12-29T03:08:41.183Z,100205.19
2022-12-29T03:11:27.882Z,100215.16
2022-12-29T03:14:19.555Z,100210.72
2022-12-29T03:16:49.659Z,100183.16
2022-12-29T03:19:22.941Z,100173.09
2022-12-29T03:22:14.258Z,100172.19
2022-12-29T03:24:45.903Z,100183.19
2022-12-29T03:27:18.674Z,100184.91
2022-12-29T03:29:55.222Z,100189.47
2022-12-29T03:32:25.592Z,100185.16
2022-12-29T03:34:56.769Z,100204.66
2022-12-29T03:37:28.776Z,100208.75
2022-12-29T03:39:56.794Z,100190.19
2022-12-29T03:42:28.677Z,100192.38
2022-12-29T03:44:58.412Z,100208.28
2022-12-29T03:47:26.700Z,100211.75
2022-12-29T03:49:55.847Z,100200.97
2022-12-29T03:52:23.644Z,100202.84
2022-12-29T03:54:51.366Z,100179.75
2022-12-29T03:57:19.097Z,100163.59
2022-12-29T03:59:46.982Z,100177.78
2022-12-29T04:02:14.998Z,100160.72
2022-12-29T04:04:42.902Z,100209.72
2022-12-29T04:07:12.036Z,100182.09
2022-12-29T04:09:39.759Z,100153.28
2022-12-29T04:12:07.569Z,100160.94
2022-12-29T04:14:35.314Z,100169.25
2022-12-29T04:17:03.055Z,100177.94
2022-12-29T04:19:30.898Z,100159.00
2022-12-29T04:21:58.632Z,100136.56
2022-12-29T04:24:27.725Z,100157.31
2022-12-29T04:26:55.456Z,100139.63
2022-12-29T04:29:23.481Z,100142.13
2022-12-29T04:31:51.217Z,100157.16
2022-12-29T04:34:18.961Z,100136.69
2022-12-29T04:36:46.732Z,100138.59
2022-12-29T04:39:14.550Z,100125.09
2022-12-29T04:41:43.726Z,100127.63
2022-12-29T04:44:11.453Z,100117.06
2022-12-29T04:46:39.273Z,100124.53
2022-12-29T04:49:09.646Z,100115.41
2022-12-29T04:51:37.890Z,100093.56
2022-12-29T04:54:05.750Z,100055.25
2022-12-29T04:56:33.521Z,100075.19
2022-12-29T04:59:02.616Z,100045.47
2022-12-29T05:01:30.404Z,100036.44
2022-12-29T05:03:58.400Z,100024.72
2022-12-29T05:06:26.235Z,100031.22
2022-12-29T05:08:53.984Z,100002.38
2022-12-29T05:11:21.768Z,100008.81
2022-12-29T05:13:49.523Z,100008.03
2022-12-29T05:16:18.708Z,99997.13
2022-12-29T05:18:46.531Z,99989.88
2022-12-29T05:21:14.257Z,99976.88
2022-12-29T05:23:42.222Z,99970.28
2022-12-29T05:26:09.954Z,99990.78
2022-12-29T05:28:37.695Z,99967.56
2022-12-29T05:31:05.601Z,99941.72
2022-12-29T05:33:34.742Z,99919.25
2022-12-29T05:36:06.362Z,99915.09
2022-12-29T05:38:34.129Z,99888.78
2022-12-29T05:41:01.941Z,99869.09
2022-12-29T05:43:29.701Z,99852.06
2022-12-29T05:45:58.239Z,99842.81
2022-12-29T05:48:25.994Z,99828.38
2022-12-29T05:50:55.086Z,99799.63
2022-12-29T05:53:22.850Z,99814.50
2022-12-29T05:55:50.633Z,99820.06
2022-12-29T05:58:19.116Z,99813.00
2022-12-29T06:00:47.172Z,99794.16
2022-12-29T06:03:15.133Z,99810.03
2022-12-29T06:05:42.904Z,99826.91
2022-12-29T06:08:11.969Z,99843.56
2022-12-29T06:10:39.865Z,99871.09
2022-12-29T06:13:07.887Z,99833.88
2022-12-29T06:15:36.166Z,99836.00
2022-12-29T06:18:03.927Z,99811.84
2022-12-29T06:20:31.668Z,99829.22
2022-12-29T06:22:59.389Z,99828.22
2022-12-29T06:25:29.457Z,99846.28
2022-12-29T06:27:57.311Z,99825.75
2022-12-29T06:30:25.012Z,99799.28
2022-12-29T06:32:53.113Z,99818.13
2022-12-29T06:35:20.840Z,99809.19
2022-12-29T06:37:48.599Z,99829.22
2022-12-29T06:40:16.803Z,99814.84
2022-12-29T06:42:45.956Z,99831.56
2022-12-29T06:45:13.721Z,99860.00
2022-12-29T06:47:41.450Z,99887.25
2022-12-29T06:50:10.013Z,99935.72
2022-12-29T06:52:37.811Z,99979.19
2022-12-29T06:55:06.389Z,99971.06
2022-12-29T06:57:34.096Z,99991.44
2022-12-29T07:00:03.605Z,100014.69
2022-12-29T07:02:31.449Z,100049.06
2022-12-29T07:04:59.311Z,100036.53
2022-12-29T07:07:27.054Z,100056.56
2022-12-29T07:09:54.773Z,100041.28
2022-12-29T07:12:22.913Z,100046.13
2022-12-29T07:14:50.620Z,100043.63
2022-12-29T07:17:19.722Z,100047.09
2022-12-29T07:19:47.472Z,100048.00
2022-12-29T07:22:15.183Z,100053.97
2022-12-29T07:24:44.183Z,100016.22
2022-12-29T07:27:11.984Z,99990.66
2022-12-29T07:29:40.271Z,99987.66
2022-12-29T07:32:08.105Z,99963.00
2022-12-29T07:34:37.428Z,99947.94
2022-12-29T07:37:05.143Z,99942.97
2022-12-29T07:39:32.842Z,99922.09
2022-12-29T07:42:04.867Z,99896.44
2022-12-29T07:44:34.212Z,99871.25
2022-12-29T07:47:02.361Z,99845.78
2022-12-29T07:49:30.310Z,99851.06
2022-12-29T07:51:59.444Z,99857.53
2022-12-29T07:54:27.197Z,99838.16
2022-12-29T07:56:54.931Z,99809.78
2022-12-29T07:59:22.750Z,99781.25
2022-12-29T08:01:50.595Z,99753.59
2022-12-29T08:04:18.415Z,99747.13
2022-12-29T08:06:46.760Z,99744.88
2022-12-29T08:09:22.061Z,99745.47
2022-12-29T08:11:50.725Z,99757.56
2022-12-29T08:14:19.222Z,99771.16
2022-12-29T08:16:47.035Z,99762.19
2022-12-29T08:19:15.313Z,99769.78
2022-12-29T08:21:43.052Z,99783.03
2022-12-29T08:24:11.663Z,99759.22
2022-12-29T08:26:40.799Z,99768.59
2022-12-29T08:29:08.604Z,99737.03
2022-12-29T08:31:36.460Z,99754.00
2022-12-29T08:34:04.974Z,99729.91
2022-12-29T08:36:32.945Z,99727.31
2022-12-29T08:39:00.670Z,99697.09
2022-12-29T08:41:28.419Z,99708.72
2022-12-29T08:43:57.520Z,99704.06
2022-12-29T08:46:25.375Z,99705.59
2022-12-29T08:48:53.216Z,99682.78
2022-12-29T08:51:24.861Z,99686.72
2022-12-29T08:53:53.294Z,99678.72
2022-12-29T08:56:20.979Z,99676.00
2022-12-29T08:58:48.688Z,99672.50
2022-12-29T09:01:18.047Z,99692.47
2022-12-29T09:06:39.717Z,99718.31
2022-12-29T09:09:08.653Z,99734.00
2022-12-29T09:11:36.556Z,99785.34
2022-12-29T09:14:04.446Z,99774.72
2022-12-29T09:16:33.816Z,99835.31
2022-12-29T09:19:01.923Z,99847.94
2022-12-29T09:21:29.723Z,99861.16
2022-12-29T09:23:57.754Z,99899.25
2022-12-29T09:26:25.489Z,99924.09
2022-12-29T09:28:53.193Z,99948.06
2022-12-29T09:31:21.033Z,100214.44
2022-12-29T09:33:50.171Z,100236.34
2022-12-29T09:36:17.889Z,100232.38
2022-12-29T09:38:45.594Z,100245.00
2022-12-29T09:41:20.694Z,100229.28
2022-12-29T09:44:00.404Z,100208.66
2022-12-29T09:46:29.726Z,100181.06
2022-12-29T09:49:10.239Z,100156.06
2022-12-29T09:51:41.660Z,100137.84
2022-12-29T09:54:25.313Z,100117.84
2022-12-29T09:56:54.999Z,100106.75
2022-12-29T09:59:27.105Z,100100.19
2022-12-29T10:02:00.259Z,100091.19
2022-12-29T10:04:30.186Z,100097.47
2022-12-29T10:07:28.525Z,100076.13
2022-12-29T10:10:02.290Z,100044.41
2022-12-29T10:12:37.148Z,99970.34
2022-12-29T10:15:12.069Z,99874.19
2022-12-29T10:17:47.176Z,99843.94
2022-12-29T10:20:29.540Z,99813.53
2022-12-29T10:23:21.689Z,99744.94
2022-12-29T10:25:49.802Z,99692.91
2022-12-29T10:28:23.261Z,99652.41
2022-12-29T10:30:53.572Z,99626.47
2022-12-29T10:33:26.368Z,99541.06
2022-12-29T10:35:55.543Z,99561.31
2022-12-29T10:38:28.973Z,99543.78
2022-12-29T10:41:01.659Z,99507.47
2022-12-29T10:43:31.051Z,99482.72
2022-12-29T10:46:03.945Z,99466.88
2022-12-29T10:48:34.054Z,99504.63
2022-12-29T10:51:05.067Z,99519.00
2022-12-29T10:53:40.384Z,99566.38
2022-12-29T10:56:20.814Z,99621.03
2022-12-29T10:58:51.098Z,99628.81
2022-12-29T11:01:21.456Z,99608.84
2022-12-29T11:04:01.140Z,99627.06
2022-12-29T11:06:31.316Z,99595.47
2022-12-29T11:09:03.220Z,99601.44
2022-12-29T11:11:36.562Z,99601.44
2022-12-29T11:14:14.458Z,99553.41
2022-12-29T11:16:45.091Z,99566.38
2022-12-29T11:19:24.595Z,99555.34
2022-12-29T11:21:54.096Z,99559.59
2022-12-29T11:24:24.169Z,99575.38
2022-12-29T11:26:58.485Z,99561.66
2022-12-29T11:29:28.961Z,99546.75
2022-12-29T11:32:00.056Z,99515.88
2022-12-29T11:34:32.479Z,99486.78
2022-12-29T11:37:04.836Z,99428.69
2022-12-29T11:39:36.292Z,99375.13
2022-12-29T11:42:05.690Z,99373.50
2022-12-29T11:44:40.015Z,99368.16
2022-12-29T11:47:14.033Z,99385.19
2022-12-29T11:49:41.785Z,99378.03
2022-12-29T11:52:10.986Z,99381.16
2022-12-29T11:54:40.125Z,99395.22
2022-12-29T11:57:14.886Z,99388.88
2022-12-29T11:59:51.224Z,99388.66
2022-12-29T12:02:40.514Z,99408.56
2022-12-29T12:05:22.123Z,99385.69
2022-12-29T12:07:55.378Z,99396.16
2022-12-29T12:10:28.753Z,99399.06
2022-12-29T12:13:06.973Z,99408.72
2022-12-29T12:15:45.895Z,99398.69
2022-12-29T12:18:21.121Z,99451.09
2022-12-29T12:20:53.999Z,99641.41
2022-12-29T12:23:38.751Z,99630.22
2022-12-29T12:26:13.471Z,99589.16
2022-12-29T12:28:48.986Z,99611.63
2022-12-29T12:31:26.340Z,99675.31
2022-12-29T12:34:00.843Z,99658.28
2022-12-29T12:36:56.115Z,99679.31
2022-12-29T12:39:32.498Z,99732.97
2022-12-29T12:42:15.841Z,99724.28
2022-12-29T12:44:57.064Z,99733.00
2022-12-29T12:47:42.593Z,99720.91
2022-12-29T12:50:51.417Z,99751.69
2022-12-29T12:53:39.726Z,99673.09
2022-12-29T12:56:29.579Z,99658.81
2022-12-29T12:59:09.796Z,99621.56
2022-12-29T13:01:49.274Z,99618.59
2022-12-29T13:04:48.904Z,99573.03
2022-12-29T13:07:29.475Z,99561.44
2022-12-29T13:10:14.189Z,99533.84
2022-12-29T13:12:51.956Z,99572.03
2022-12-29T13:15:31.995Z,99520.38
2022-12-29T13:18:07.051Z,99524.47
2022-12-29T13:20:41.568Z,99502.63
2022-12-29T13:23:18.352Z,99520.66
2022-12-29T13:25:51.618Z,99544.34
2022-12-29T13:28:26.241Z,99524.47
2022-12-29T13:31:02.772Z,99524.94
2022-12-29T13:33:42.622Z,99541.13
2022-12-29T13:36:20.537Z,99537.56
2022-12-29T13:38:53.849Z,99526.66
2022-12-29T13:41:29.182Z,99541.41
2022-12-29T13:44:01.787Z,99546.47
2022-12-29T13:46:33.159Z,99579.81
2022-12-29T13:49:07.386Z,99558.00
2022-12-29T13:51:36.381Z,99574.56
2022-12-29T13:54:15.213Z,99562.69
2022-12-29T13:56:51.576Z,99571.84
2022-12-29T13:59:27.359Z,99613.53
2022-12-29T14:02:00.686Z,99609.16
2022-12-29T14:04:33.691Z,99620.97
2022-12-29T14:07:04.912Z,99612.59
2022-12-29T14:09:49.019Z,99599.06
2022-12-29T14:12:44.314Z,99587.97
2022-12-29T14:15:25.413Z,99593.84
2022-12-29T14:18:07.174Z,99636.88
2022-12-29T14:20:35.825Z,99599.19
2022-12-29T14:23:18.617Z,99600.09
2022-12-29T14:26:01.932Z,99589.44
2022-12-29T14:28:31.393Z,99585.28
2022-12-29T14:31:01.692Z,99603.19
2022-12-29T14:33:32.734Z,99592.66
2022-12-29T14:36:22.218Z,99578.19
2022-12-29T14:38:50.541Z,99602.06
2022-12-29T14:41:26.179Z,99616.25
2022-12-29T14:43:57.805Z,99631.66
2022-12-29T14:46:27.490Z,99629.72
2022-12-29T14:49:02.189Z,99628.72
2022-12-29T14:51:34.250Z,99639.63
2022-12-29T14:54:02.181Z,99641.66
2022-12-29T14:56:32.707Z,99641.97
2022-12-29T14:59:03.863Z,99658.03
2022-12-29T15:01:45.031Z,99644.38
2022-12-29T15:04:19.546Z,99685.47
2022-12-29T15:06:48.487Z,99662.06
2022-12-29T15:09:27.079Z,99667.38
2022-12-29T15:11:57.126Z,99693.19
2022-12-29T15:14:35.180Z,99703.41
2022-12-29T15:17:12.509Z,99719.97
2022-12-29T15:19:40.576Z,99720.25
2022-12-29T15:22:11.488Z,99729.63
2022-12-29T15:24:43.724Z,99700.22
2022-12-29T15:27:16.167Z,99721.06
2022-12-29T15:29:46.094Z,99718.56
2022-12-29T15:32:24.195Z,99706.59
2022-12-29T15:34:54.409Z,99692.38
2022-12-29T15:37:24.688Z,99691.09
2022-12-29T15:39:54.229Z,99689.81
2022-12-29T15:42:38.117Z,99660.16
2022-12-29T15:45:11.376Z,99665.25
2022-12-29T15:47:42.388Z,99657.44
2022-12-29T15:50:21.871Z,99623.69
2022-12-29T15:52:50.154Z,99612.47
2022-12-29T15:55:26.869Z,99605.38
2022-12-29T15:57:59.903Z,99608.19
2022-12-29T16:00:29.882Z,99596.22
2022-12-29T16:03:01.617Z,99624.59
2022-12-29T16:05:34.476Z,99617.19
2022-12-29T16:08:02.540Z,99646.16
2022-12-29T16:10:37.529Z,99625.28
2022-12-29T16:13:08.051Z,99630.91
2022-12-29T16:15:36.007Z,99652.16
2022-12-29T16:18:05.328Z,99657.44
2022-12-29T16:20:43.154Z,99646.13
2022-12-29T16:23:21.715Z,99636.09
2022-12-29T16:25:49.656Z,99630.56
2022-12-29T16:28:22.027Z,99633.25
2022-12-29T16:30:59.897Z,99610.59
2022-12-29T16:33:39.989Z,99621.75
2022-12-29T16:36:42.414Z,99630.59
2022-12-29T16:39:30.379Z,99646.22
2022-12-29T16:41:58.674Z,99654.03
2022-12-29T16:44:28.600Z,99642.75
2022-12-29T16:47:22.199Z,99655.16
2022-12-29T16:50:13.695Z,99663.75
2022-12-29T16:52:41.529Z,99681.34
2022-12-29T16:55:18.549Z,99682.09
2022-12-29T16:57:48.369Z,99697.91
2022-12-29T17:00:21.428Z,99679.06
2022-12-29T17:02:51.044Z,99666.44
2022-12-29T17:05:20.815Z,99669.13
2022-12-29T17:07:49.094Z,99672.78
2022-12-29T17:10:17.191Z,99676.78
2022-12-29T17:12:47.939Z,99688.16
2022-12-29T17:15:21.578Z,99675.28
2022-12-29T17:17:50.996Z,99684.34
2022-12-29T17:20:22.287Z,99678.91
2022-12-29T17:22:51.214Z,99685.69
2022-12-29T17:25:21.952Z,99699.53
2022-12-29T17:27:53.863Z,99698.88
2022-12-29T17:30:28.420Z,99690.31
2022-12-29T17:33:01.185Z,99696.91
2022-12-29T17:35:30.283Z,99704.34
2022-12-29T17:37:58.032Z,99691.59
2022-12-29T17:40:28.174Z,99687.00
2022-12-29T17:42:57.813Z,99702.03
2022-12-29T17:45:27.399Z,99711.75
2022-12-29T17:47:55.800Z,99697.41
2022-12-29T17:50:26.680Z,99693.78
2022-12-29T17:53:01.178Z,99703.69
2022-12-29T17:55:36.676Z,99707.66
2022-12-29T17:58:16.698Z,99718.84
2022-12-29T18:00:47.595Z,99721.16
2022-12-29T18:03:17.643Z,99731.06
2022-12-29T18:05:46.505Z,99728.94
2022-12-29T18:08:15.792Z,99742.78
2022-12-29T18:10:44.121Z,99751.84
2022-12-29T18:13:21.682Z,99747.41
2022-12-29T18:15:50.307Z,99734.13
2022-12-29T18:18:20.390Z,99751.06
2022-12-29T18:20:50.301Z,99756.97
2022-12-29T18:23:23.078Z,99740.56
2022-12-29T18:25:54.968Z,99748.69
2022-12-29T18:28:23.596Z,99742.09
2022-12-29T18:30:51.613Z,99753.53
2022-12-29T18:33:24.107Z,99769.00
2022-12-29T18:35:58.597Z,99763.34
2022-12-29T18:38:29.331Z,99766.09
2022-12-29T18:40:58.475Z,99753.41
2022-12-29T18:43:26.652Z,99774.19
2022-12-29T18:45:54.428Z,99763.16
2022-12-29T18:48:22.537Z,99769.50
2022-12-29T18:50:51.913Z,99779.66
2022-12-29T18:53:22.070Z,99776.78
2022-12-29T18:55:51.691Z,99768.69
2022-12-29T18:58:19.622Z,99760.19
2022-12-29T19:00:48.389Z,99779.91
2022-12-29T19:03:18.032Z,99772.06
2022-12-29T19:05:48.022Z,99769.84
2022-12-29T19:08:15.879Z,99781.19
2022-12-29T19:10:44.421Z,99767.63
2022-12-29T19:13:17.635Z,99762.13
2022-12-29T19:15:46.535Z,99768.47
2022-12-29T19:21:08.147Z,99777.25
2022-12-29T19:23:35.864Z,99784.44
2022-12-29T19:26:03.604Z,99807.06
2022-12-29T19:28:33.022Z,99791.53
2022-12-29T19:31:03.205Z,99782.41
2022-12-29T19:33:31.000Z,99789.72
2022-12-29T19:36:01.577Z,99781.84
2022-12-29T19:38:29.759Z,99793.09
2022-12-29T19:40:57.655Z,99805.78
2022-12-29T19:43:25.438Z,99805.41
2022-12-29T19:45:54.584Z,99794.28
2022-12-29T19:48:22.487Z,99814.22
2022-12-29T19:50:50.440Z,99817.22
2022-12-29T19:53:18.349Z,99823.75
2022-12-29T19:55:46.630Z,99808.13
2022-12-29T19:58:15.221Z,99810.44
2022-12-29T20:00:44.053Z,99812.34
2022-12-29T20:03:14.948Z,99805.72
2022-12-29T20:05:42.751Z,99816.75
2022-12-29T20:08:10.548Z,99809.91
2022-12-29T20:10:38.259Z,99793.63
2022-12-29T20:13:06.115Z,99813.16
2022-12-29T20:15:33.877Z,99799.56
2022-12-29T20:18:13.304Z,99781.34
2022-12-29T20:20:43.252Z,99784.19
2022-12-29T20:23:11.218Z,99783.19
2022-12-29T20:25:47.557Z,99786.06
2022-12-29T20:28:17.017Z,99778.78
2022-12-29T20:30:45.090Z,99793.94
2022-12-29T20:33:12.855Z,99792.13
2022-12-29T20:35:40.676Z,99787.09
2022-12-29T20:38:09.843Z,99792.44
2022-12-29T20:40:42.565Z,99789.50
2022-12-29T20:43:14.723Z,99782.31
2022-12-29T20:45:42.752Z,99792.75
2022-12-29T20:48:10.516Z,99799.63
2022-12-29T20:50:38.272Z,99788.44
2022-12-29T20:53:06.097Z,99795.75
2022-12-29T20:55:35.557Z,99795.81
2022-12-29T21:00:51.169Z,99796.44
2022-12-29T21:03:19.586Z,99778.72
2022-12-29T21:05:47.587Z,99785.28
2022-12-29T21:08:15.315Z,99786.28
2022-12-29T21:10:47.466Z,99799.50
2022-12-29T21:13:15.290Z,99787.88
2022-12-29T21:15:43.069Z,99785.47
2022-12-29T21:18:10.858Z,99784.91
2022-12-29T21:20:38.811Z,99781.41
2022-12-29T21:23:07.368Z,99770.50
2022-12-29T21:25:37.907Z,99789.59
2022-12-29T21:28:08.721Z,99775.41
2022-12-29T21:30:36.870Z,99788.75
2022-12-29T21:33:05.270Z,99787.16
2022-12-29T21:35:36.017Z,99783.06
2022-12-29T21:38:03.754Z,99773.00
2022-12-29T21:40:32.202Z,99763.03
2022-12-29T21:43:00.199Z,99772.97
2022-12-29T21:45:30.260Z,99791.16
2022-12-29T21:48:17.623Z,99783.72
2022-12-29T21:51:00.800Z,99794.63
2022-12-29T21:53:38.715Z,99838.06
2022-12-29T21:56:08.480Z,99883.31
2022-12-29T21:58:51.360Z,100097.31
2022-12-29T22:01:38.104Z,100376.09
2022-12-29T22:04:23.855Z,100348.97
2022-12-29T22:07:10.641Z,100322.38
2022-12-29T22:09:56.009Z,100238.09
2022-12-29T22:12:41.541Z,100307.72
2022-12-29T22:15:09.786Z,100541.72
2022-12-29T22:17:42.374Z,100462.75
2022-12-29T22:20:12.940Z,100411.47
2022-12-29T22:22:40.708Z,100392.66
2022-12-29T22:25:10.337Z,100354.41
2022-12-29T22:27:38.242Z,100344.88
2022-12-29T22:30:07.564Z,100338.41
2022-12-29T22:32:36.161Z,100318.75
2022-12-29T22:35:08.343Z,100300.00
2022-12-29T22:37:37.808Z,100293.72
2022-12-29T22:40:06.347Z,100298.19
2022-12-29T22:42:34.214Z,100297.50
2022-12-29T22:45:01.950Z,100316.84
2022-12-29T22:47:29.722Z,100304.53
2022-12-29T22:49:57.449Z,100329.22
2022-12-29T22:52:26.572Z,100327.28
2022-12-29T22:54:54.366Z,100324.00
2022-12-29T22:57:22.234Z,100320.09
2022-12-29T22:59:49.997Z,100328.56
2022-12-29T23:02:17.991Z,100342.47
2022-12-29T23:05:02.900Z,100345.19
2022-12-29T23:07:32.918Z,100350.75
2022-12-29T23:10:00.722Z,100350.94
2022-12-29T23:12:30.950Z,100369.59
2022-12-29T23:14:58.688Z,100347.59
2022-12-29T23:17:26.498Z,100346.44
2022-12-29T23:19:54.750Z,100350.81
2022-12-29T23:22:23.253Z,100341.53
2022-12-29T23:24:52.407Z,100327.66
2022-12-29T23:27:20.163Z,100331.25
2022-12-29T23:29:48.030Z,100330.81
2022-12-29T23:32:15.823Z,100334.16
2022-12-29T23:34:43.535Z,100312.16
2022-12-29T23:37:11.256Z,100320.00
2022-12-29T23:39:39.002Z,100329.44
2022-12-29T23:42:08.117Z,100315.84
2022-12-29T23:44:35.893Z,100303.56
2022-12-29T23:47:03.732Z,100317.91
2022-12-29T23:49:32.090Z,100318.91
2022-12-29T23:51:59.797Z,100302.59
2022-12-29T23:54:27.521Z,100303.75
2022-12-29T23:56:55.235Z,100290.41
2022-12-29T23:59:24.381Z,100290.41
